Time;durP1;ratioP1;P1;durP2;ratioP2;P2;SDS_P1;SDS_P2;PMS_P1;PMS_P2;Temp;Humidity;BMP_temperature;BMP_pressure;BME280_temperature;BME280_humidity;BME280_pressure;Samples;Min_cycle;Max_cycle;Signal;HPM_P1;HPM_P2
2024/02/17 00:02:25;;;;;;;40.47;18.52;;;;;;;2.28;100.00;98358.38;5003301;28;20486;-81
2024/02/17 00:04:51;;;;;;;47.95;18.65;;;;;;;2.19;100.00;98343.53;4991657;28;20033;-82
2024/02/17 00:07:16;;;;;;;41.03;17.80;;;;;;;2.29;100.00;98360.97;5008801;28;20531;-81
2024/02/17 00:09:42;;;;;;;43.95;17.40;;;;;;;2.23;100.00;98361.06;5007301;28;20041;-81
2024/02/17 00:12:09;;;;;;;31.88;15.05;;;;;;;2.10;100.00;98354.25;4991534;28;20053;-80
2024/02/17 00:14:35;;;;;;;35.00;16.70;;;;;;;2.19;100.00;98359.38;4998112;28;20029;-82
2024/02/17 00:17:24;;;;;;;38.30;17.17;;;;;;;2.25;100.00;98361.91;4999530;28;20112;-80
2024/02/17 00:19:50;;;;;;;41.10;18.33;;;;;;;2.17;100.00;98350.63;4980004;28;20038;-80
2024/02/17 00:22:16;;;;;;;40.08;19.25;;;;;;;2.09;100.00;98352.53;5003602;28;20022;-80
2024/02/17 00:24:42;;;;;;;45.13;20.10;;;;;;;2.05;100.00;98370.16;4989929;28;20129;-80
2024/02/17 00:27:15;;;;;;;39.05;19.15;;;;;;;2.04;100.00;98363.13;5103428;27;20393;-80
2024/02/17 00:29:41;;;;;;;39.55;18.05;;;;;;;2.06;100.00;98363.13;5080988;28;20415;-82
2024/02/17 00:32:06;;;;;;;40.10;18.40;;;;;;;2.00;100.00;98360.56;5075506;28;20093;-82
2024/02/17 00:34:32;;;;;;;45.28;19.70;;;;;;;2.03;100.00;98357.91;5089955;28;20107;-81
2024/02/17 00:36:59;;;;;;;43.63;19.70;;;;;;;2.02;100.00;98361.41;5084224;28;20058;-81
2024/02/17 00:39:24;;;;;;;43.05;19.92;;;;;;;2.06;100.00;98368.41;5081848;28;20036;-82
2024/02/17 00:41:50;;;;;;;46.33;19.58;;;;;;;1.97;100.00;98371.19;5077324;28;20057;-81
2024/02/17 00:44:15;;;;;;;53.60;18.83;;;;;;;1.79;100.00;98369.66;5105218;28;20491;-82
2024/02/17 00:46:41;;;;;;;33.58;17.10;;;;;;;1.81;100.00;98367.00;5096400;28;20019;-82
2024/02/17 00:49:09;;;;;;;25.77;13.57;;;;;;;1.86;100.00;98375.72;5078335;28;20040;-82
2024/02/17 00:51:35;;;;;;;25.23;11.40;;;;;;;1.72;100.00;98361.88;5087371;28;20452;-81
2024/02/17 00:54:00;;;;;;;25.23;10.63;;;;;;;1.71;100.00;98366.25;5073551;28;20032;-81
2024/02/17 00:56:26;;;;;;;24.58;11.98;;;;;;;1.66;100.00;98362.84;5099264;28;20558;-81
2024/02/17 00:58:52;;;;;;;27.20;13.23;;;;;;;1.58;100.00;98360.28;5090278;28;20337;-82
2024/02/17 01:01:17;;;;;;;36.28;14.35;;;;;;;1.48;100.00;98358.66;5100655;28;20119;-81
2024/02/17 01:03:43;;;;;;;30.80;13.07;;;;;;;1.57;100.00;98360.28;5072626;28;20508;-82
2024/02/17 01:06:09;;;;;;;33.60;13.88;;;;;;;1.67;100.00;98363.69;5096799;28;20021;-82
2024/02/17 01:08:35;;;;;;;32.17;13.10;;;;;;;1.61;100.00;98368.16;5078011;28;20412;-81
2024/02/17 01:11:01;;;;;;;30.27;13.98;;;;;;;1.63;100.00;98358.44;5104250;28;20597;-82
2024/02/17 01:13:27;;;;;;;28.38;13.07;;;;;;;1.64;100.00;98354.03;5087033;28;20032;-81
2024/02/17 01:15:52;;;;;;;27.70;13.45;;;;;;;1.62;100.00;98350.56;5089234;28;20028;-82
2024/02/17 01:18:18;;;;;;;36.08;16.23;;;;;;;1.64;100.00;98360.19;5084015;28;20020;-82
2024/02/17 01:20:44;;;;;;;31.98;15.57;;;;;;;1.66;100.00;98359.31;5071414;28;20066;-83
2024/02/17 01:23:09;;;;;;;34.33;15.32;;;;;;;1.73;100.00;98363.59;5078979;28;20081;-81
2024/02/17 01:25:35;;;;;;;28.83;14.00;;;;;;;1.61;100.00;98354.09;5085264;28;20052;-80
2024/02/17 01:28:00;;;;;;;32.97;13.00;;;;;;;1.48;100.00;98366.56;5075156;28;20026;-81
2024/02/17 01:30:26;;;;;;;27.38;12.15;;;;;;;1.41;100.00;98367.56;5080281;28;20023;-82
2024/02/17 01:32:51;;;;;;;23.40;10.98;;;;;;;1.43;100.00;98363.13;5090700;28;20016;-82
2024/02/17 01:35:17;;;;;;;24.48;11.85;;;;;;;1.35;100.00;98358.84;5077376;28;20027;-82
2024/02/17 01:37:43;;;;;;;33.45;13.48;;;;;;;1.30;100.00;98364.16;5062023;28;20024;-82
2024/02/17 01:40:09;;;;;;;25.80;11.38;;;;;;;1.16;100.00;98362.59;5074945;28;20092;-83
2024/02/17 01:42:34;;;;;;;20.63;9.98;;;;;;;1.12;100.00;98361.75;5065711;28;20016;-82
2024/02/17 01:45:01;;;;;;;24.95;10.07;;;;;;;1.13;100.00;98354.72;5064239;28;20027;-80
2024/02/17 01:47:26;;;;;;;20.50;9.93;;;;;;;1.19;100.00;98365.19;5057607;28;20515;-82
2024/02/17 01:49:53;;;;;;;22.50;10.10;;;;;;;1.13;100.00;98366.13;5058926;28;20024;-81
2024/02/17 01:52:19;;;;;;;24.25;10.55;;;;;;;1.16;100.00;98357.31;5081944;28;20024;-82
2024/02/17 01:54:45;;;;;;;26.83;11.25;;;;;;;1.23;100.00;98367.75;5064119;28;20062;-82
2024/02/17 01:57:11;;;;;;;22.85;11.75;;;;;;;1.31;100.00;98368.56;5067291;28;20036;-81
2024/02/17 01:59:38;;;;;;;22.20;10.93;;;;;;;1.33;100.00;98369.38;5059799;28;20028;-81
2024/02/17 02:02:07;;;;;;;22.55;11.38;;;;;;;1.37;100.00;98372.88;5065384;28;20059;-81
2024/02/17 02:04:32;;;;;;;28.48;11.55;;;;;;;1.34;100.00;98376.41;5078539;28;20032;-82
2024/02/17 02:06:58;;;;;;;25.75;11.57;;;;;;;1.31;100.00;98381.72;5055262;28;20134;-81
2024/02/17 02:09:25;;;;;;;28.92;11.38;;;;;;;1.27;100.00;98379.13;5055925;28;20024;-82
2024/02/17 02:11:56;;;;;;;24.80;11.65;;;;;;;1.35;100.00;98390.47;5074568;28;20056;-81
2024/02/17 02:14:23;;;;;;;18.90;9.18;;;;;;;1.28;100.00;98375.63;5071314;28;20025;-81
2024/02/17 02:16:49;;;;;;;29.75;13.00;;;;;;;1.28;100.00;98387.03;5072587;28;20028;-81
2024/02/17 02:19:15;;;;;;;37.63;14.65;;;;;;;1.26;100.00;98377.41;5064704;28;20031;-82
2024/02/17 02:21:41;;;;;;;28.20;14.40;;;;;;;1.31;100.00;98391.38;5086820;28;20031;-82
2024/02/17 02:24:07;;;;;;;31.50;13.85;;;;;;;1.29;100.00;98383.53;5063037;28;20040;-80
2024/02/17 02:26:34;;;;;;;31.35;13.10;;;;;;;1.20;100.00;98382.75;5060253;28;20526;-81
2024/02/17 02:28:59;;;;;;;30.48;14.02;;;;;;;1.20;100.00;98380.97;5065239;28;20034;-81
2024/02/17 02:31:25;;;;;;;34.70;14.20;;;;;;;1.18;100.00;98390.66;5056656;28;20416;-81
2024/02/17 02:33:51;;;;;;;32.13;14.65;;;;;;;1.12;100.00;98384.56;5089456;28;20027;-81
2024/02/17 02:36:18;;;;;;;27.98;12.80;;;;;;;1.11;100.00;98396.03;5089398;28;20022;-81
2024/02/17 02:38:44;;;;;;;30.92;14.20;;;;;;;1.04;100.00;98387.31;5070702;28;20027;-82
2024/02/17 02:41:10;;;;;;;25.67;13.50;;;;;;;1.11;100.00;98399.50;5074679;28;20035;-82
2024/02/17 02:43:37;;;;;;;27.10;12.48;;;;;;;1.12;100.00;98389.84;5082221;28;20016;-82
2024/02/17 02:46:02;;;;;;;32.58;12.55;;;;;;;1.05;100.00;98378.50;5059566;28;20020;-82
2024/02/17 02:48:28;;;;;;;25.65;12.98;;;;;;;1.02;100.00;98394.34;5071820;28;20384;-82
2024/02/17 02:50:54;;;;;;;25.85;12.43;;;;;;;0.99;100.00;98386.47;5074790;28;20035;-81
2024/02/17 02:53:20;;;;;;;25.00;11.68;;;;;;;0.96;100.00;98384.75;5073368;28;20154;-81
2024/02/17 02:55:46;;;;;;;26.58;11.70;;;;;;;1.02;100.00;98389.06;5086196;28;20017;-82
2024/02/17 02:58:11;;;;;;;23.80;11.77;;;;;;;0.88;100.00;98372.56;5074181;28;20031;-81
2024/02/17 03:00:37;;;;;;;26.83;11.77;;;;;;;0.80;100.00;98392.84;5076939;28;20026;-81
2024/02/17 03:03:03;;;;;;;22.77;11.30;;;;;;;0.73;100.00;98396.41;5073757;28;20024;-81
2024/02/17 03:05:28;;;;;;;20.98;10.10;;;;;;;0.76;100.00;98399.00;5082388;28;20423;-82
2024/02/17 03:07:54;;;;;;;24.63;10.85;;;;;;;0.73;100.00;98391.16;5072715;28;20033;-82
2024/02/17 03:10:20;;;;;;;20.58;10.82;;;;;;;0.70;100.00;98392.06;5081586;28;20495;-82
2024/02/17 03:12:45;;;;;;;22.33;11.50;;;;;;;0.70;100.00;98393.81;5091491;28;20028;-83
2024/02/17 03:15:11;;;;;;;24.85;11.73;;;;;;;0.74;100.00;98404.28;5064831;28;20423;-81
2024/02/17 03:17:37;;;;;;;24.67;12.35;;;;;;;0.65;100.00;98395.63;5062510;28;20035;-82
2024/02/17 03:20:06;;;;;;;35.15;16.60;;;;;;;0.69;100.00;98406.09;5085970;28;20388;-82
2024/02/17 03:22:35;;;;;;;29.52;14.90;;;;;;;0.68;100.00;98387.69;5063366;28;20128;-82
2024/02/17 03:25:01;;;;;;;27.85;14.45;;;;;;;0.72;100.00;98406.06;5065880;28;20530;-82
2024/02/17 03:27:27;;;;;;;32.17;13.77;;;;;;;0.63;100.00;98405.28;5067232;28;20064;-81
2024/02/17 03:29:53;;;;;;;33.42;13.80;;;;;;;0.70;100.00;98401.69;5084086;28;20054;-82
2024/02/17 03:32:19;;;;;;;30.20;12.77;;;;;;;0.64;100.00;98409.66;5088591;28;20095;-82
2024/02/17 03:34:45;;;;;;;29.90;12.35;;;;;;;0.55;100.00;98402.72;5071165;28;20106;-82
2024/02/17 03:37:10;;;;;;;27.30;13.00;;;;;;;0.64;100.00;98407.91;5046813;28;20034;-82
2024/02/17 03:39:36;;;;;;;29.20;14.07;;;;;;;0.68;100.00;98401.69;5072009;28;20032;-81
2024/02/17 03:42:02;;;;;;;28.58;12.85;;;;;;;0.72;100.00;98398.16;5060519;28;20028;-82
2024/02/17 03:44:28;;;;;;;21.80;11.40;;;;;;;0.65;100.00;98396.47;5078943;28;20178;-81
2024/02/17 03:46:54;;;;;;;26.55;12.02;;;;;;;0.62;100.00;98390.34;5080638;28;20013;-83
2024/02/17 03:49:20;;;;;;;29.55;13.02;;;;;;;0.70;100.00;98399.06;5077938;28;20035;-82
2024/02/17 03:51:48;;;;;;;30.48;12.18;;;;;;;0.74;100.00;98399.00;5076337;28;20049;-82
2024/02/17 03:54:15;;;;;;;24.35;11.95;;;;;;;0.75;100.00;98394.63;5067214;28;20039;-79
2024/02/17 03:56:40;;;;;;;26.52;12.20;;;;;;;0.75;100.00;98392.00;5055287;28;20031;-82
2024/02/17 03:59:06;;;;;;;26.40;11.93;;;;;;;0.77;100.00;98398.13;5067353;28;20028;-81
2024/02/17 04:01:39;;;;;;;30.75;13.32;;;;;;;0.82;100.00;98404.22;5089179;28;20031;-81
2024/02/17 04:04:04;;;;;;;26.77;13.20;;;;;;;0.69;100.00;98400.81;5077000;28;20042;-81
2024/02/17 04:06:33;;;;;;;28.50;13.32;;;;;;;0.70;100.00;98401.69;5088607;28;20024;-81
2024/02/17 04:08:59;;;;;;;32.17;13.05;;;;;;;0.75;100.00;98402.53;5053827;28;20039;-82
2024/02/17 04:11:28;;;;;;;30.25;13.63;;;;;;;0.66;100.00;98394.72;5062082;28;20059;-81
2024/02/17 04:13:56;;;;;;;28.25;13.05;;;;;;;0.62;100.00;98399.13;5070061;28;20024;-82
2024/02/17 04:16:22;;;;;;;25.70;12.07;;;;;;;0.59;100.00;98404.41;5079644;28;20044;-80
2024/02/17 04:18:48;;;;;;;24.85;11.77;;;;;;;0.52;100.00;98393.06;5072625;28;20106;-80
2024/02/17 04:21:14;;;;;;;25.00;11.95;;;;;;;0.50;100.00;98394.84;5054671;28;20032;-81
2024/02/17 04:23:40;;;;;;;22.90;12.05;;;;;;;0.53;100.00;98394.81;5060299;28;20036;-82
2024/02/17 04:26:06;;;;;;;27.85;12.77;;;;;;;0.54;100.00;98396.59;5066664;28;20079;-81
2024/02/17 04:28:35;;;;;;;27.77;13.02;;;;;;;0.57;100.00;98403.56;5059583;28;20028;-81
2024/02/17 04:31:01;;;;;;;35.97;15.00;;;;;;;0.54;100.00;98385.19;5067278;28;20084;-80
2024/02/17 04:33:27;;;;;;;36.17;15.32;;;;;;;0.66;100.00;98399.97;5082613;28;20032;-80
2024/02/17 04:35:53;;;;;;;29.15;13.68;;;;;;;0.62;100.00;98398.25;5069762;28;20111;-81
2024/02/17 04:38:19;;;;;;;29.95;13.60;;;;;;;0.58;100.00;98397.44;5084821;28;20027;-81
2024/02/17 04:40:45;;;;;;;32.78;14.63;;;;;;;0.64;100.00;98401.75;5073224;28;20126;-82
2024/02/17 04:43:11;;;;;;;43.42;16.23;;;;;;;0.62;100.00;98414.03;5067504;28;20395;-81
2024/02/17 04:45:37;;;;;;;41.33;18.08;;;;;;;0.50;100.00;98388.72;5058077;28;20082;-82
2024/02/17 04:48:03;;;;;;;47.60;20.98;;;;;;;0.57;100.00;98400.94;5070462;28;20047;-82
2024/02/17 04:50:29;;;;;;;46.50;22.25;;;;;;;0.58;100.00;98397.44;5071259;28;20028;-82
2024/02/17 04:52:54;;;;;;;52.42;21.48;;;;;;;0.60;100.00;98397.41;5064012;28;20419;-82
2024/02/17 04:55:20;;;;;;;58.08;22.05;;;;;;;0.51;100.00;98396.59;5085459;28;20028;-83
2024/02/17 04:57:45;;;;;;;40.78;18.83;;;;;;;0.45;100.00;98396.66;5062977;28;20118;-82
2024/02/17 05:00:11;;;;;;;35.80;15.82;;;;;;;0.43;100.00;98402.81;5058935;28;20116;-84
2024/02/17 05:02:38;;;;;;;32.15;14.90;;;;;;;0.34;100.00;98409.00;5059619;28;20043;-83
2024/02/17 05:05:04;;;;;;;28.45;14.13;;;;;;;0.25;100.00;98409.09;5081037;28;20080;-84
2024/02/17 05:07:30;;;;;;;29.27;12.40;;;;;;;0.18;100.00;98402.16;5058526;28;20507;-85
2024/02/17 05:09:55;;;;;;;31.27;11.85;;;;;;;0.13;100.00;98401.28;5088657;28;20028;-82
2024/02/17 05:12:21;;;;;;;31.25;12.23;;;;;;;0.11;100.00;98400.44;5078347;28;20484;-80
2024/02/17 05:14:46;;;;;;;24.48;11.73;;;;;;;0.15;100.00;98410.06;5083509;28;20128;-80
2024/02/17 05:17:12;;;;;;;33.45;13.63;;;;;;;0.08;100.00;98413.59;5090734;28;20044;-81
2024/02/17 05:19:38;;;;;;;25.95;12.23;;;;;;;0.07;100.00;98414.47;5061531;28;20411;-80
2024/02/17 05:22:04;;;;;;;27.42;12.90;;;;;;;0.02;100.00;98402.25;5072678;28;20039;-81
2024/02/17 05:24:31;;;;;;;33.20;12.45;;;;;;;0.05;100.00;98405.75;5056714;28;20035;-82
2024/02/17 05:26:57;;;;;;;25.52;12.63;;;;;;;0.00;100.00;98412.78;5073906;28;20090;-81
2024/02/17 05:29:23;;;;;;;25.85;12.80;;;;;;;0.07;100.00;98413.59;5078965;28;20028;-80
2024/02/17 05:31:48;;;;;;;31.02;13.00;;;;;;;0.14;100.00;98426.72;5090858;28;20429;-83
2024/02/17 05:34:17;;;;;;;23.85;12.93;;;;;;;0.21;100.00;98423.16;5068263;28;20023;-82
2024/02/17 05:36:42;;;;;;;30.42;11.93;;;;;;;0.19;100.00;98432.81;5076045;28;20050;-82
2024/02/17 05:39:09;;;;;;;37.72;13.10;;;;;;;0.24;100.00;98430.16;5072296;28;20048;-81
2024/02/17 05:41:35;;;;;;;31.55;15.38;;;;;;;0.26;100.00;98437.16;5064137;28;20024;-81
2024/02/17 05:44:00;;;;;;;33.92;16.33;;;;;;;0.29;100.00;98441.50;5075937;28;20063;-80
2024/02/17 05:46:37;;;;;;;38.92;18.52;;;;;;;0.35;100.00;98437.06;5084203;28;20345;-81
2024/02/17 05:49:03;;;;;;;36.47;15.00;;;;;;;0.22;100.00;98424.88;5068766;28;20390;-81
2024/02/17 05:51:31;;;;;;;40.40;16.95;;;;;;;0.33;100.00;98440.63;5092640;28;20032;-82
2024/02/17 05:53:57;;;;;;;35.95;16.55;;;;;;;0.71;100.00;98448.22;5083348;28;20561;-81
2024/02/17 05:56:22;;;;;;;39.85;19.23;;;;;;;1.43;100.00;98436.03;5059651;28;20068;-81
2024/02/17 05:58:48;;;;;;;37.58;19.75;;;;;;;2.10;100.00;98451.88;5059566;28;20490;-83
2024/02/17 06:01:13;;;;;;;60.70;26.08;;;;;;;2.92;100.00;98442.66;5066295;28;20047;-81
2024/02/17 06:03:42;;;;;;;54.78;27.10;;;;;;;3.82;100.00;98435.59;5093773;28;20116;-82
2024/02/17 06:06:07;;;;;;;63.00;29.75;;;;;;;4.64;100.00;98422.28;5073652;28;20035;-81
2024/02/17 06:08:33;;;;;;;58.22;25.63;;;;;;;5.29;100.00;98416.13;5088180;28;20488;-78
2024/02/17 06:10:58;;;;;;;43.17;22.10;;;;;;;6.50;100.00;98414.34;5091588;28;20024;-79
2024/02/17 06:13:24;;;;;;;48.28;23.05;;;;;;;7.37;100.00;98404.31;5092578;28;20461;-77
2024/02/17 06:15:50;;;;;;;57.05;26.05;;;;;;;8.25;100.00;98396.53;5092280;28;20016;-78
2024/02/17 06:21:19;;;;;;;60.50;26.92;;;;;;;9.25;99.39;98385.28;5075183;28;20035;-78
2024/02/17 06:23:45;;;;;;;56.25;25.00;;;;;;;8.84;98.53;98396.84;5079387;28;20029;-83
2024/02/17 06:26:25;;;;;;;54.17;24.73;;;;;;;8.49;100.00;98392.09;5064039;28;20079;-81
2024/02/17 06:28:51;;;;;;;79.60;33.42;;;;;;;8.50;100.00;98397.34;5078203;28;20468;-80
2024/02/17 06:31:17;;;;;;;80.28;34.05;;;;;;;9.36;97.58;98399.97;5066699;28;20101;-81
2024/02/17 06:33:43;;;;;;;77.85;31.45;;;;;;;9.89;91.40;98394.91;5079495;28;20136;-80
2024/02/17 06:36:08;;;;;;;34.80;19.63;;;;;;;9.75;90.69;98393.72;5054939;28;20028;-80
2024/02/17 06:38:34;;;;;;;45.00;22.73;;;;;;;9.60;90.20;98397.09;5056125;28;20028;-80
2024/02/17 06:40:59;;;;;;;70.60;33.00;;;;;;;9.43;93.71;98401.44;5083627;28;20036;-81
2024/02/17 06:43:25;;;;;;;67.88;32.33;;;;;;;9.40;95.82;98401.56;5083806;28;20123;-81
2024/02/17 06:45:51;;;;;;;96.47;41.67;;;;;;;9.48;94.58;98408.31;5064853;28;20020;-80
2024/02/17 06:48:16;;;;;;;115.90;50.72;;;;;;;9.54;92.91;98389.34;5069130;28;20060;-79
2024/02/17 06:50:42;;;;;;;118.30;50.70;;;;;;;9.02;97.91;98406.75;5057787;28;20090;-81
2024/02/17 06:53:07;;;;;;;82.18;39.85;;;;;;;9.65;95.39;98403.09;5071428;28;20036;-82
2024/02/17 06:55:33;;;;;;;87.95;39.60;;;;;;;10.27;91.83;98405.59;5058177;28;20031;-81
2024/02/17 06:57:59;;;;;;;89.88;40.75;;;;;;;10.62;88.01;98403.91;5068040;28;20055;-82
2024/02/17 07:00:24;;;;;;;78.38;39.00;;;;;;;11.11;81.37;98397.00;5059089;28;20463;-81
2024/02/17 07:02:50;;;;;;;78.28;38.03;;;;;;;10.97;79.85;98399.50;5083710;28;20024;-82
2024/02/17 07:05:16;;;;;;;89.80;43.85;;;;;;;11.52;75.66;98394.88;5088052;28;20031;-81
2024/02/17 07:07:43;;;;;;;88.05;41.38;;;;;;;11.12;77.61;98390.72;5054625;28;20028;-83
2024/02/17 07:10:09;;;;;;;80.75;39.45;;;;;;;11.62;76.84;98397.97;5067295;28;20070;-81
2024/02/17 07:12:34;;;;;;;69.07;36.28;;;;;;;11.90;74.45;98398.25;5080614;28;20082;-82
2024/02/17 07:15:01;;;;;;;66.88;35.10;;;;;;;11.41;76.36;98400.78;5064308;28;20110;-80
2024/02/17 07:17:27;;;;;;;67.43;37.17;;;;;;;11.04;81.05;98400.94;5064358;28;20039;-82
2024/02/17 07:19:52;;;;;;;53.47;30.17;;;;;;;11.24;81.08;98403.47;5050843;28;20033;-83
2024/02/17 07:22:18;;;;;;;53.88;29.80;;;;;;;11.05;82.92;98401.78;5051208;28;20461;-83
2024/02/17 07:24:43;;;;;;;58.63;30.00;;;;;;;11.38;82.31;98403.63;5051253;28;20036;-82
2024/02/17 07:27:10;;;;;;;79.05;35.30;;;;;;;12.14;73.41;98401.44;5068258;28;20052;-82
2024/02/17 07:29:37;;;;;;;69.05;33.88;;;;;;;12.29;71.42;98389.84;5067289;28;20059;-82
2024/02/17 07:32:06;;;;;;;74.65;35.35;;;;;;;12.89;67.00;98390.88;5059479;28;20036;-82
2024/02/17 07:34:31;;;;;;;69.53;36.22;;;;;;;13.10;66.29;98397.75;5050785;28;20036;-82
2024/02/17 07:36:58;;;;;;;83.38;41.10;;;;;;;13.45;63.93;98392.94;5079739;28;20032;-82
2024/02/17 07:39:24;;;;;;;73.20;40.00;;;;;;;14.00;61.01;98382.38;5081900;28;20044;-83
2024/02/17 07:41:53;;;;;;;64.88;39.00;;;;;;;12.70;67.03;98390.22;5069317;28;20070;-82
2024/02/17 07:44:20;;;;;;;56.22;31.88;;;;;;;13.19;66.62;98399.03;5050724;28;20062;-81
2024/02/17 07:46:49;;;;;;;51.70;27.67;;;;;;;12.52;72.39;98414.44;5081398;28;20059;-82
2024/02/17 07:49:17;;;;;;;51.72;25.23;;;;;;;12.91;71.16;98405.09;5071266;28;20040;-79
2024/02/17 07:51:43;;;;;;;47.67;25.55;;;;;;;12.75;72.35;98404.25;5063163;28;20031;-81
2024/02/17 07:54:09;;;;;;;41.45;22.50;;;;;;;13.39;68.87;98401.38;5056391;28;20381;-82
2024/02/17 07:56:35;;;;;;;39.78;23.80;;;;;;;13.83;65.92;98396.00;5065920;28;20031;-81
2024/02/17 07:59:00;;;;;;;42.55;21.75;;;;;;;14.22;62.88;98390.84;5056282;28;20040;-82
2024/02/17 08:01:26;;;;;;;40.03;21.95;;;;;;;14.74;60.80;98382.13;5054755;28;20039;-81
2024/02/17 08:03:51;;;;;;;41.40;21.27;;;;;;;15.09;58.38;98378.84;5071932;28;20501;-81
2024/02/17 08:06:21;;;;;;;38.63;21.05;;;;;;;15.25;57.43;98391.31;5066662;28;20141;-81
2024/02/17 08:08:53;;;;;;;41.95;21.42;;;;;;;14.70;58.56;98391.41;5084886;28;20485;-80
2024/02/17 08:11:19;;;;;;;42.47;21.73;;;;;;;14.54;60.32;98395.09;5067334;28;20480;-85
2024/02/17 08:13:45;;;;;;;38.78;21.08;;;;;;;15.17;59.71;98400.75;5062721;28;20059;-84
2024/02/17 08:16:11;;;;;;;45.55;23.83;;;;;;;15.17;57.59;98391.81;5088352;28;20115;-86
2024/02/17 08:18:51;;;;;;;48.33;25.98;;;;;;;13.67;62.00;98373.72;5056137;28;20377;-83
2024/02/17 08:21:17;;;;;;;43.80;26.45;;;;;;;13.49;64.72;98414.19;5050232;28;20462;-81
2024/02/17 08:23:43;;;;;;;51.17;29.63;;;;;;;12.78;69.76;98414.81;5055465;28;20024;-81
2024/02/17 08:26:11;;;;;;;56.00;31.85;;;;;;;12.63;75.82;98424.59;5074105;28;20040;-79
2024/02/17 08:28:37;;;;;;;60.95;28.55;;;;;;;13.16;74.88;98432.31;5083526;28;20407;-78
2024/02/17 08:31:03;;;;;;;57.92;32.75;;;;;;;14.34;66.16;98411.63;5076963;28;20028;-79
2024/02/17 08:33:29;;;;;;;54.80;31.20;;;;;;;14.22;64.09;98409.69;5071289;28;20035;-80
2024/02/17 08:35:54;;;;;;;51.88;31.33;;;;;;;14.08;64.14;98415.06;5064806;28;20020;-81
2024/02/17 08:38:20;;;;;;;52.15;28.77;;;;;;;14.50;63.01;98423.16;5051623;28;20054;-77
2024/02/17 08:40:46;;;;;;;47.50;24.55;;;;;;;15.19;60.83;98414.16;5074806;28;20020;-78
2024/02/17 08:43:11;;;;;;;39.72;24.05;;;;;;;15.86;57.36;98401.50;5083226;28;20522;-77
2024/02/17 08:45:48;;;;;;;44.70;25.95;;;;;;;16.58;54.63;98393.59;5075625;28;20036;-78
2024/02/17 08:48:14;;;;;;;38.22;21.73;;;;;;;16.96;53.44;98400.72;5087812;28;20100;-78
2024/02/17 08:50:40;;;;;;;32.05;19.00;;;;;;;16.58;54.61;98404.38;5070325;28;20047;-77
2024/02/17 08:53:06;;;;;;;35.47;20.20;;;;;;;16.97;52.62;98400.63;5071561;28;20056;-77
2024/02/17 08:55:31;;;;;;;32.10;20.70;;;;;;;17.32;52.37;98404.25;5053493;28;20032;-77
2024/02/17 08:57:57;;;;;;;30.83;19.45;;;;;;;17.74;51.40;98391.16;5078724;28;20024;-78
2024/02/17 09:00:24;;;;;;;32.80;20.17;;;;;;;18.00;50.06;98399.94;5091411;28;20074;-79
2024/02/17 09:02:50;;;;;;;32.95;19.65;;;;;;;18.27;49.38;98395.09;5110273;28;20051;-78
2024/02/17 09:05:15;;;;;;;33.47;20.05;;;;;;;18.57;48.80;98392.66;5103610;28;20032;-77
2024/02/17 09:07:41;;;;;;;33.60;19.23;;;;;;;18.79;48.39;98391.78;5077184;28;20031;-79
2024/02/17 09:10:08;;;;;;;35.60;20.48;;;;;;;18.86;47.81;98383.00;5078935;28;20415;-77
2024/02/17 09:12:34;;;;;;;31.52;20.27;;;;;;;19.09;47.44;98391.09;5072492;28;20099;-75
2024/02/17 09:14:59;;;;;;;35.72;20.27;;;;;;;19.12;47.22;98393.56;5080297;28;20038;-77
2024/02/17 09:17:25;;;;;;;33.83;19.92;;;;;;;19.39;45.92;98386.72;5075012;28;20021;-78
2024/02/17 09:19:51;;;;;;;35.63;20.42;;;;;;;19.88;45.65;98387.94;5078550;28;20028;-77
2024/02/17 09:22:17;;;;;;;33.05;19.25;;;;;;;19.90;45.08;98384.09;5088070;28;20143;-78
2024/02/17 09:24:42;;;;;;;35.90;18.52;;;;;;;19.88;45.38;98385.25;5076116;28;20027;-79
2024/02/17 09:27:09;;;;;;;27.77;16.55;;;;;;;20.03;44.26;98383.91;5064449;28;20044;-78
2024/02/17 09:29:35;;;;;;;30.88;17.20;;;;;;;20.02;44.25;98388.50;5092204;28;20058;-78
2024/02/17 09:32:01;;;;;;;27.92;16.95;;;;;;;18.98;46.29;98381.13;5089148;28;20513;-78
2024/02/17 09:34:29;;;;;;;28.55;16.00;;;;;;;20.03;44.68;98371.19;5090415;28;20059;-79
2024/02/17 09:36:55;;;;;;;25.38;14.63;;;;;;;21.28;42.24;98365.44;5063443;28;20036;-79
2024/02/17 09:39:22;;;;;;;23.65;13.80;;;;;;;21.33;41.07;98369.44;5077233;28;20405;-79
2024/02/17 09:41:47;;;;;;;18.92;12.43;;;;;;;21.02;41.10;98371.34;5074901;28;20025;-78
2024/02/17 09:44:13;;;;;;;24.08;14.90;;;;;;;21.55;40.76;98357.41;5084321;28;20028;-79
2024/02/17 09:46:38;;;;;;;22.08;12.55;;;;;;;21.27;40.67;98363.69;5084365;28;20487;-78
2024/02/17 09:49:06;;;;;;;21.10;10.85;;;;;;;20.55;41.68;98372.06;5081561;28;20036;-79
2024/02/17 09:51:33;;;;;;;18.25;11.73;;;;;;;21.43;41.04;98366.72;5066377;28;20052;-79
2024/02/17 09:54:00;;;;;;;18.05;10.77;;;;;;;21.98;40.23;98346.94;5077437;28;20575;-82
2024/02/17 09:56:26;;;;;;;20.25;11.73;;;;;;;22.50;40.46;98345.47;5060381;28;20031;-78
2024/02/17 09:58:52;;;;;;;25.42;13.50;;;;;;;22.11;40.59;98339.31;5081356;28;20028;-78
2024/02/17 10:01:19;;;;;;;14.48;9.45;;;;;;;21.53;41.25;98353.97;5068553;28;20024;-80
2024/02/17 10:03:46;;;;;;;16.98;9.90;;;;;;;22.13;40.98;98331.84;5080429;28;20484;-81
2024/02/17 10:06:13;;;;;;;14.48;8.70;;;;;;;22.56;39.55;98333.97;5055113;28;20460;-75
2024/02/17 10:08:39;;;;;;;15.38;8.75;;;;;;;22.59;39.53;98338.25;5070937;28;20407;-76
2024/02/17 10:11:11;;;;;;;13.63;7.88;;;;;;;21.88;39.94;98321.56;5091723;28;20539;-76
2024/02/17 10:13:41;;;;;;;11.27;7.13;;;;;;;22.76;38.70;98326.59;5091945;28;20463;-77
2024/02/17 10:16:16;;;;;;;14.48;8.70;;;;;;;23.02;38.18;98322.09;5063330;28;20488;-78
2024/02/17 10:18:43;;;;;;;13.20;7.95;;;;;;;23.75;36.98;98311.91;5081511;28;20515;-80
2024/02/17 10:21:09;;;;;;;9.65;6.53;;;;;;;24.04;35.91;98301.53;5080060;28;20021;-79
2024/02/17 10:23:35;;;;;;;12.18;8.40;;;;;;;23.22;36.75;98310.03;5099302;28;20031;-81
2024/02/17 10:26:02;;;;;;;9.60;6.90;;;;;;;21.55;38.33;98313.84;5101908;28;20040;-81
2024/02/17 10:28:29;;;;;;;11.52;6.53;;;;;;;20.74;40.33;98320.47;5082079;28;20033;-78
2024/02/17 10:30:57;;;;;;;26.52;14.90;;;;;;;21.39;39.59;98314.41;5083959;28;20063;-78
2024/02/17 10:33:27;;;;;;;11.23;7.72;;;;;;;22.41;38.32;98304.63;5070175;28;20454;-81
2024/02/17 10:35:56;;;;;;;10.95;6.10;;;;;;;21.26;39.65;98294.78;5090054;28;20023;-80
2024/02/17 10:38:24;;;;;;;9.70;6.50;;;;;;;21.59;39.69;98294.31;5076536;28;20055;-81
2024/02/17 10:40:51;;;;;;;12.07;6.60;;;;;;;22.53;39.03;98300.69;5086433;28;20111;-82
2024/02/17 10:43:18;;;;;;;8.63;6.18;;;;;;;22.90;38.28;98290.59;5066764;28;20028;-81
2024/02/17 10:45:44;;;;;;;8.65;6.03;;;;;;;23.41;37.28;98270.81;5066546;28;20028;-81
2024/02/17 10:48:13;;;;;;;10.18;6.38;;;;;;;22.71;37.67;98279.78;5094307;28;20119;-81
2024/02/17 10:50:44;;;;;;;10.80;7.10;;;;;;;22.94;37.76;98272.91;5079513;28;20044;-83
2024/02/17 10:53:28;;;;;;;17.60;7.60;;;;;;;23.60;36.83;98280.69;5063220;28;20038;-83
2024/02/17 10:55:57;;;;;;;13.45;6.28;;;;;;;23.57;36.66;98281.88;5087063;28;20070;-82
2024/02/17 10:58:26;;;;;;;8.60;5.80;;;;;;;23.37;36.96;98283.06;5087903;28;20032;-80
2024/02/17 11:00:52;;;;;;;9.30;5.68;;;;;;;22.34;37.62;98285.25;5082646;28;20474;-80
2024/02/17 11:03:34;;;;;;;8.32;5.60;;;;;;;22.86;37.46;98297.34;5055076;28;20024;-80
2024/02/17 11:06:06;;;;;;;22.48;8.18;;;;;;;24.17;35.99;98255.53;5080318;28;20044;-80
2024/02/17 11:08:32;;;;;;;8.45;6.43;;;;;;;23.77;36.25;98255.22;5081624;28;20513;-81
2024/02/17 11:11:32;;;;;;;12.27;7.20;;;;;;;24.22;35.80;98264.09;5062342;28;20031;-81
2024/02/17 11:14:06;;;;;;;10.98;6.30;;;;;;;25.10;35.16;98246.28;5066416;28;20032;-80
2024/02/17 11:16:35;;;;;;;10.63;8.15;;;;;;;25.62;34.32;98256.97;5073020;28;20092;-82
2024/02/17 11:19:01;;;;;;;12.88;6.53;;;;;;;25.88;34.02;98260.38;5096262;28;20076;-81
2024/02/17 11:21:39;;;;;;;12.88;9.07;;;;;;;25.75;33.25;98247.19;5080636;28;20107;-82